createdAt,value
2019-03-03T00:01:03.778Z,30.13
2019-03-03T00:03:36.828Z,32.03
2019-03-03T00:06:09.817Z,34.27
2019-03-03T00:08:42.803Z,34.93
2019-03-03T00:11:15.814Z,29.30
2019-03-03T00:13:48.899Z,32.37
2019-03-03T00:16:22.356Z,30.63
2019-03-03T00:18:55.839Z,37.47
2019-03-03T00:21:28.167Z,28.83
2019-03-03T00:24:00.869Z,33.30
2019-03-03T00:26:33.823Z,34.17
2019-03-03T00:29:07.410Z,33.80
2019-03-03T00:31:40.824Z,30.23
2019-03-03T00:34:12.924Z,32.50
2019-03-03T00:37:06.495Z,26.70
2019-03-03T00:39:59.916Z,31.00
2019-03-03T00:42:55.913Z,27.33
2019-03-03T00:45:37.257Z,35.67
2019-03-03T00:48:27.918Z,25.90
2019-03-03T00:51:15.383Z,28.40
2019-03-03T00:54:05.497Z,29.07
2019-03-03T00:56:53.344Z,31.83
2019-03-03T00:59:52.057Z,24.77
2019-03-03T01:02:54.786Z,30.70
2019-03-03T01:05:47.528Z,30.77
2019-03-03T01:08:28.025Z,31.10
2019-03-03T01:11:20.862Z,29.80
2019-03-03T01:14:12.592Z,25.63
2019-03-03T01:17:07.188Z,27.87
2019-03-03T01:19:49.319Z,28.60
2019-03-03T01:22:38.871Z,31.27
2019-03-03T01:25:11.318Z,30.70
2019-03-03T01:27:45.979Z,25.13
2019-03-03T01:30:18.992Z,29.73
2019-03-03T01:32:52.152Z,29.40
2019-03-03T01:35:24.423Z,32.73
2019-03-03T01:37:57.281Z,27.20
2019-03-03T01:40:30.292Z,30.67
2019-03-03T01:43:01.512Z,29.60
2019-03-03T01:45:34.294Z,29.33
2019-03-03T01:48:06.385Z,35.13
2019-03-03T01:50:39.241Z,25.63
2019-03-03T01:53:12.364Z,24.27
2019-03-03T01:55:46.258Z,26.53
2019-03-03T01:58:18.243Z,27.20
2019-03-03T02:00:51.406Z,28.63
2019-03-03T02:03:25.551Z,23.70
2019-03-03T02:05:59.482Z,22.10
2019-03-03T02:08:32.223Z,29.60
2019-03-03T02:11:05.444Z,24.23
2019-03-03T02:13:38.578Z,21.20
2019-03-03T02:16:13.184Z,27.10
2019-03-03T02:18:47.263Z,29.30
2019-03-03T02:21:20.630Z,28.67
2019-03-03T02:23:56.075Z,27.10
2019-03-03T02:26:28.557Z,23.40
2019-03-03T02:29:02.254Z,23.37
2019-03-03T02:31:33.484Z,26.90
2019-03-03T02:34:07.699Z,28.43
2019-03-03T02:36:39.311Z,22.67
2019-03-03T02:39:22.425Z,24.03
2019-03-03T02:41:55.496Z,25.27
2019-03-03T02:44:28.649Z,23.40
2019-03-03T02:47:00.413Z,31.13
2019-03-03T02:49:32.681Z,24.37
2019-03-03T02:52:06.597Z,24.93
2019-03-03T02:54:39.449Z,24.87
2019-03-03T02:57:11.936Z,28.07
2019-03-03T03:00:33.334Z,24.27
2019-03-03T03:03:09.535Z,24.00
2019-03-03T03:06:11.443Z,22.77
2019-03-03T03:09:07.569Z,20.60
2019-03-03T03:12:01.556Z,26.50
2019-03-03T03:14:38.185Z,25.87
2019-03-03T03:17:46.740Z,26.73
2019-03-03T03:20:25.530Z,24.37
2019-03-03T03:23:10.706Z,21.10
2019-03-03T03:26:02.329Z,22.90
2019-03-03T03:28:59.861Z,28.33
2019-03-03T03:31:51.395Z,21.07
2019-03-03T03:34:27.096Z,24.70
2019-03-03T03:37:06.396Z,25.17
2019-03-03T03:39:49.239Z,30.07
2019-03-03T03:42:27.760Z,22.63
2019-03-03T03:45:28.666Z,19.50
2019-03-03T03:48:13.758Z,23.53
2019-03-03T03:50:58.441Z,21.70
2019-03-03T03:53:52.208Z,22.60
2019-03-03T03:56:35.448Z,26.23
2019-03-03T03:59:21.576Z,23.50
2019-03-03T04:02:23.034Z,18.33
2019-03-03T04:05:19.545Z,17.33
2019-03-03T04:08:21.422Z,19.67
2019-03-03T04:11:15.018Z,14.87
2019-03-03T04:14:03.999Z,14.17
2019-03-03T04:16:58.793Z,13.87
2019-03-03T04:19:47.099Z,12.00
2019-03-03T04:22:47.205Z,11.20
2019-03-03T04:25:53.692Z,12.63
2019-03-03T04:28:36.094Z,13.47
2019-03-03T04:31:31.357Z,11.97
2019-03-03T04:34:13.112Z,12.00
2019-03-03T04:37:05.593Z,15.90
2019-03-03T04:39:56.096Z,11.73
2019-03-03T04:42:37.938Z,11.47
2019-03-03T04:45:17.634Z,13.53
2019-03-03T04:48:00.956Z,12.73
2019-03-03T04:50:56.262Z,15.10
2019-03-03T04:53:45.239Z,15.80
2019-03-03T04:56:40.747Z,14.30
2019-03-03T04:59:29.218Z,14.23
2019-03-03T05:02:15.983Z,18.77
2019-03-03T05:05:05.759Z,18.30
2019-03-03T05:07:54.690Z,19.13
2019-03-03T05:10:50.175Z,17.70
2019-03-03T05:13:25.378Z,18.97
2019-03-03T05:16:16.693Z,16.90
2019-03-03T05:19:01.224Z,19.97
2019-03-03T05:21:34.426Z,22.83
2019-03-03T05:24:08.304Z,21.47
2019-03-03T05:26:39.553Z,19.13
2019-03-03T05:29:13.205Z,19.27
2019-03-03T05:31:46.393Z,24.90
2019-03-03T05:34:19.962Z,22.13
2019-03-03T05:36:52.675Z,28.63
2019-03-03T05:39:25.282Z,29.73
2019-03-03T05:41:58.383Z,23.40
2019-03-03T05:44:31.505Z,27.50
2019-03-03T05:47:04.101Z,28.93
2019-03-03T05:49:35.786Z,22.57
2019-03-03T05:52:10.187Z,22.90
2019-03-03T05:54:42.982Z,19.90
2019-03-03T05:57:14.552Z,16.50
2019-03-03T05:59:46.491Z,18.90
2019-03-03T06:02:20.482Z,22.33
2019-03-03T06:04:54.302Z,31.03
2019-03-03T06:07:27.439Z,18.37
2019-03-03T06:10:01.957Z,19.10
2019-03-03T06:12:33.511Z,16.53
2019-03-03T06:15:09.012Z,15.87
2019-03-03T06:17:40.192Z,15.67
2019-03-03T06:20:14.510Z,16.07
2019-03-03T06:22:46.591Z,14.30
2019-03-03T06:25:18.579Z,16.47
2019-03-03T06:27:52.501Z,15.17
2019-03-03T06:30:26.467Z,13.07
2019-03-03T06:32:57.660Z,17.90
2019-03-03T06:35:31.494Z,18.40
2019-03-03T06:38:04.624Z,14.87
2019-03-03T06:40:35.899Z,14.80
2019-03-03T06:43:07.669Z,14.23
2019-03-03T06:45:39.794Z,11.20
2019-03-03T06:48:13.736Z,12.90
2019-03-03T06:50:46.770Z,12.43
2019-03-03T06:53:19.786Z,14.77
2019-03-03T06:55:52.716Z,12.10
2019-03-03T06:58:24.626Z,15.03
2019-03-03T07:00:56.047Z,17.20
2019-03-03T07:03:29.658Z,12.30
2019-03-03T07:06:00.835Z,14.43
2019-03-03T07:08:33.803Z,15.10
2019-03-03T07:11:07.552Z,15.00
2019-03-03T07:13:39.846Z,17.10
2019-03-03T07:16:13.992Z,13.87
2019-03-03T07:18:45.855Z,17.13
2019-03-03T07:21:19.978Z,13.03
2019-03-03T07:23:52.907Z,17.37
2019-03-03T07:26:24.740Z,12.60
2019-03-03T07:28:57.889Z,14.50
2019-03-03T07:31:31.878Z,13.87
2019-03-03T07:34:05.076Z,20.60
2019-03-03T07:36:39.817Z,13.20
2019-03-03T07:39:19.485Z,15.03
2019-03-03T07:41:51.888Z,17.50
2019-03-03T07:44:23.257Z,14.77
2019-03-03T07:46:54.888Z,16.63
2019-03-03T07:49:29.026Z,18.70
2019-03-03T07:52:02.096Z,15.00
2019-03-03T07:54:33.839Z,13.53
2019-03-03T07:57:06.952Z,11.27
2019-03-03T07:59:40.005Z,12.73
2019-03-03T08:02:14.061Z,16.57
2019-03-03T08:04:45.986Z,16.27
2019-03-03T08:07:17.826Z,13.23
2019-03-03T08:09:48.999Z,20.23
2019-03-03T08:12:22.515Z,13.70
2019-03-03T08:14:54.940Z,12.23
2019-03-03T08:17:27.443Z,10.30
2019-03-03T08:20:01.662Z,12.03
2019-03-03T08:22:34.399Z,8.87
2019-03-03T08:25:07.711Z,11.67
2019-03-03T08:27:39.935Z,11.03
2019-03-03T08:30:12.869Z,13.90
2019-03-03T08:32:46.214Z,8.57
2019-03-03T08:35:18.110Z,9.60
2019-03-03T08:37:51.300Z,8.77
2019-03-03T08:40:24.263Z,8.50
2019-03-03T08:43:12.176Z,7.70
2019-03-03T08:46:05.485Z,9.70
2019-03-03T08:48:53.503Z,9.43
2019-03-03T08:51:39.397Z,9.13
2019-03-03T08:54:30.863Z,7.43
2019-03-03T08:57:21.149Z,10.27
2019-03-03T09:00:26.645Z,9.37
2019-03-03T09:03:12.958Z,10.60
2019-03-03T09:06:09.590Z,11.53
2019-03-03T09:09:04.355Z,14.67
2019-03-03T09:12:08.555Z,15.10
2019-03-03T09:15:10.872Z,14.77
2019-03-03T09:18:20.741Z,18.47
2019-03-03T09:21:11.904Z,20.17
2019-03-03T09:23:51.420Z,19.60
2019-03-03T09:26:45.752Z,18.60
2019-03-03T09:29:43.650Z,13.00
2019-03-03T09:32:38.001Z,10.70
2019-03-03T09:35:27.504Z,8.70
2019-03-03T09:38:15.829Z,11.10
2019-03-03T09:40:57.825Z,10.60
2019-03-03T09:43:39.209Z,6.33
2019-03-03T09:46:19.881Z,9.40
2019-03-03T09:49:20.454Z,5.50
2019-03-03T09:52:16.562Z,7.00
2019-03-03T09:55:20.638Z,5.73
2019-03-03T09:58:24.473Z,8.63
2019-03-03T10:01:08.747Z,13.90
2019-03-03T10:04:05.038Z,4.40
2019-03-03T10:06:55.431Z,7.00
2019-03-03T10:09:50.816Z,4.63
2019-03-03T10:12:49.304Z,5.27
2019-03-03T10:15:31.151Z,4.30
2019-03-03T10:18:26.186Z,4.33
2019-03-03T10:21:35.874Z,5.17
2019-03-03T10:24:26.175Z,3.70
2019-03-03T10:27:15.831Z,5.97
2019-03-03T10:30:26.794Z,5.07
2019-03-03T10:33:39.332Z,6.00
2019-03-03T10:36:30.166Z,5.87
2019-03-03T10:39:30.041Z,9.60
2019-03-03T10:42:37.855Z,6.43
2019-03-03T10:45:30.913Z,4.97
2019-03-03T10:48:29.439Z,5.70
2019-03-03T10:51:20.701Z,5.00
2019-03-03T10:54:20.777Z,3.77
2019-03-03T10:57:17.803Z,4.43
2019-03-03T11:00:27.154Z,4.33
2019-03-03T11:03:12.852Z,5.20
2019-03-03T11:06:12.231Z,4.77
2019-03-03T11:09:11.868Z,7.03
2019-03-03T11:12:03.010Z,4.77
2019-03-03T11:14:49.876Z,3.87
2019-03-03T11:17:31.463Z,4.80
2019-03-03T11:20:12.051Z,4.60
2019-03-03T11:23:02.075Z,5.30
2019-03-03T11:25:53.470Z,6.00
2019-03-03T11:28:44.304Z,7.53
2019-03-03T11:31:44.193Z,9.40
2019-03-03T11:34:54.614Z,7.17
2019-03-03T11:37:50.885Z,3.67
2019-03-03T11:40:44.926Z,12.13
2019-03-03T11:43:31.694Z,7.13
2019-03-03T11:46:20.750Z,8.00
2019-03-03T11:49:13.012Z,8.03
2019-03-03T11:52:06.267Z,5.03
2019-03-03T11:54:56.868Z,15.43
2019-03-03T11:57:54.038Z,3.73
2019-03-03T12:00:43.607Z,5.83
2019-03-03T12:03:51.041Z,3.23
2019-03-03T12:06:42.083Z,3.47
2019-03-03T12:09:44.406Z,5.17
2019-03-03T12:12:38.963Z,4.07
2019-03-03T12:15:18.516Z,8.23
2019-03-03T12:18:08.307Z,2.60
2019-03-03T12:21:11.507Z,3.13
2019-03-03T12:23:59.037Z,7.27
2019-03-03T12:26:38.562Z,1.90
2019-03-03T12:29:34.832Z,12.03
2019-03-03T12:32:25.315Z,5.90
2019-03-03T12:35:27.843Z,6.33
2019-03-03T12:38:10.206Z,3.90
2019-03-03T12:41:00.994Z,7.10
2019-03-03T12:43:58.270Z,5.60
2019-03-03T12:46:47.143Z,2.40
2019-03-03T12:49:40.038Z,4.53
2019-03-03T12:52:39.594Z,3.40
2019-03-03T12:55:18.951Z,3.70
2019-03-03T12:58:19.961Z,4.10
2019-03-03T13:01:09.939Z,4.13
2019-03-03T13:04:05.465Z,7.70
2019-03-03T13:06:58.978Z,7.17
2019-03-03T13:09:56.450Z,3.43
2019-03-03T13:12:44.863Z,4.27
2019-03-03T13:15:39.905Z,5.83
2019-03-03T13:18:29.798Z,4.10
2019-03-03T13:21:32.009Z,3.93
2019-03-03T13:24:20.539Z,5.10
2019-03-03T13:27:06.498Z,3.90
2019-03-03T13:30:00.651Z,5.00
2019-03-03T13:32:55.367Z,3.63
2019-03-03T13:35:44.899Z,6.03
2019-03-03T13:38:47.821Z,3.20
2019-03-03T13:41:41.416Z,3.30
2019-03-03T13:44:14.574Z,6.07
2019-03-03T13:46:46.688Z,4.73
2019-03-03T13:49:21.324Z,5.13
2019-03-03T13:51:52.531Z,4.60
2019-03-03T13:54:25.453Z,3.43
2019-03-03T13:56:56.660Z,2.50
2019-03-03T13:59:30.652Z,5.50
2019-03-03T14:02:05.351Z,4.83
2019-03-03T14:04:37.756Z,3.37
2019-03-03T14:07:10.802Z,6.77
2019-03-03T14:09:43.643Z,2.30
2019-03-03T14:12:16.733Z,4.70
2019-03-03T14:14:49.747Z,7.33
2019-03-03T14:17:24.398Z,3.27
2019-03-03T14:19:55.624Z,5.07
2019-03-03T14:22:26.895Z,2.80
2019-03-03T14:25:00.691Z,5.90
2019-03-03T14:27:33.723Z,2.80
2019-03-03T14:30:11.508Z,3.13
2019-03-03T14:32:43.636Z,2.70
2019-03-03T14:35:16.766Z,4.53
2019-03-03T14:37:50.830Z,7.80
2019-03-03T14:40:24.921Z,4.87
2019-03-03T14:42:58.843Z,1.80
2019-03-03T14:45:31.852Z,9.57
2019-03-03T14:48:03.927Z,4.40
2019-03-03T14:50:37.743Z,4.13
2019-03-03T14:53:09.974Z,3.43
2019-03-03T14:55:41.154Z,4.00
2019-03-03T14:58:14.755Z,4.37
2019-03-03T15:00:46.927Z,4.73
2019-03-03T15:03:20.971Z,3.57
2019-03-03T15:05:55.355Z,7.83
2019-03-03T15:08:28.103Z,5.73
2019-03-03T15:11:02.035Z,5.50
2019-03-03T15:13:34.844Z,6.10
2019-03-03T15:16:08.854Z,7.10
2019-03-03T15:18:40.315Z,8.90
2019-03-03T15:21:13.108Z,2.13
2019-03-03T15:23:47.027Z,5.50
2019-03-03T15:26:21.040Z,6.07
2019-03-03T15:28:54.011Z,3.57
2019-03-03T15:31:37.315Z,7.03
2019-03-03T15:34:02.799Z,6.20
2019-03-03T15:36:37.073Z,3.60
2019-03-03T15:39:11.466Z,5.20
2019-03-03T15:41:44.283Z,2.23
2019-03-03T15:44:15.597Z,2.20
2019-03-03T15:46:49.090Z,5.70
2019-03-03T15:49:22.103Z,4.47
2019-03-03T15:51:53.331Z,3.03
2019-03-03T15:54:28.781Z,5.20
2019-03-03T15:56:59.990Z,5.47
2019-03-03T16:06:18.882Z,2.80
2019-03-03T16:08:50.596Z,3.53
2019-03-03T16:11:22.214Z,3.60
2019-03-03T16:13:56.906Z,5.40
2019-03-03T16:16:29.485Z,4.77
2019-03-03T16:19:02.196Z,6.70
2019-03-03T16:21:38.276Z,5.17
2019-03-03T16:24:10.098Z,4.27
2019-03-03T16:26:41.381Z,5.63
2019-03-03T16:29:14.937Z,7.30
2019-03-03T16:31:49.923Z,5.63
2019-03-03T16:34:23.591Z,2.20
2019-03-03T16:36:57.849Z,4.60
2019-03-03T16:39:31.230Z,3.00
2019-03-03T16:42:02.472Z,3.23
2019-03-03T16:44:35.408Z,4.13
2019-03-03T16:47:06.623Z,2.20
2019-03-03T16:49:39.646Z,6.53
2019-03-03T16:52:13.374Z,2.40
2019-03-03T16:54:47.233Z,4.33
2019-03-03T16:57:20.518Z,7.87
2019-03-03T16:59:54.521Z,7.47
2019-03-03T17:02:28.085Z,3.27
2019-03-03T17:05:03.119Z,3.53
2019-03-03T17:07:35.314Z,1.90
2019-03-03T17:10:08.360Z,4.53
2019-03-03T17:12:41.291Z,13.17
2019-03-03T17:15:20.637Z,4.17
2019-03-03T17:17:53.741Z,6.13
2019-03-03T17:20:25.451Z,8.17
2019-03-03T17:22:58.711Z,5.40
2019-03-03T17:25:33.984Z,2.60
2019-03-03T17:28:05.623Z,8.90
2019-03-03T17:30:47.135Z,7.63
2019-03-03T17:33:20.779Z,8.17
2019-03-03T17:35:53.805Z,4.90
2019-03-03T17:38:27.045Z,6.17
2019-03-03T17:40:58.834Z,3.53
2019-03-03T17:43:32.808Z,11.43
2019-03-03T17:46:06.798Z,6.80
2019-03-03T17:48:42.309Z,10.10
2019-03-03T17:51:14.718Z,6.80
2019-03-03T17:53:47.950Z,10.77
2019-03-03T17:56:23.370Z,10.20
2019-03-03T17:58:55.835Z,4.33
2019-03-03T18:01:30.172Z,4.67
2019-03-03T18:04:02.618Z,4.53
2019-03-03T18:06:38.973Z,4.37
2019-03-03T18:09:11.365Z,5.13
2019-03-03T18:11:45.575Z,6.10
2019-03-03T18:14:19.993Z,3.43
2019-03-03T18:20:18.872Z,4.73
2019-03-03T18:22:50.911Z,3.00
2019-03-03T18:25:22.524Z,2.10
2019-03-03T18:27:56.002Z,2.20
2019-03-03T18:30:29.007Z,3.40
2019-03-03T18:33:08.635Z,6.30
2019-03-03T18:35:41.421Z,3.90
2019-03-03T18:38:12.840Z,5.10
2019-03-03T18:40:45.321Z,8.90
2019-03-03T18:43:16.778Z,9.07
2019-03-03T18:45:51.103Z,31.07
2019-03-03T18:48:24.036Z,14.43
2019-03-03T18:50:58.043Z,10.60
2019-03-03T18:53:29.252Z,4.33
2019-03-03T18:56:03.070Z,4.17
2019-03-03T18:58:35.972Z,7.13
2019-03-03T19:01:09.956Z,4.30
2019-03-03T19:03:42.060Z,4.60
2019-03-03T19:06:15.091Z,12.43
2019-03-03T19:08:46.946Z,4.63
2019-03-03T19:11:18.196Z,6.00
2019-03-03T19:13:53.644Z,5.97
2019-03-03T19:16:26.198Z,4.93
2019-03-03T19:19:01.767Z,3.37
2019-03-03T19:21:35.698Z,7.90
2019-03-03T19:24:08.312Z,5.30
2019-03-03T19:26:41.081Z,4.63
2019-03-03T19:29:13.106Z,5.60
2019-03-03T19:31:47.286Z,3.30
2019-03-03T19:34:20.861Z,6.60
2019-03-03T19:36:53.413Z,3.07
2019-03-03T19:39:24.727Z,3.23
2019-03-03T19:42:00.008Z,2.90
2019-03-03T19:44:33.035Z,5.13
2019-03-03T19:47:06.158Z,3.30
2019-03-03T19:49:38.386Z,5.53
2019-03-03T19:52:12.344Z,9.87
2019-03-03T19:54:48.042Z,4.90
2019-03-03T19:57:19.337Z,6.87
2019-03-03T19:59:53.455Z,5.50
2019-03-03T20:02:26.317Z,4.17
2019-03-03T20:05:00.503Z,3.27
2019-03-03T20:07:31.782Z,3.77
2019-03-03T20:10:05.002Z,2.23
2019-03-03T20:12:39.349Z,2.10
2019-03-03T20:15:12.107Z,10.13
2019-03-03T20:17:44.588Z,13.83
2019-03-03T20:20:18.876Z,5.20
2019-03-03T20:26:17.125Z,5.13
2019-03-03T20:28:50.743Z,8.80
2019-03-03T20:31:24.517Z,3.30
2019-03-03T20:34:12.155Z,4.40
2019-03-03T20:36:44.632Z,3.37
2019-03-03T20:39:20.972Z,3.20
2019-03-03T20:41:53.487Z,4.70
2019-03-03T20:44:24.738Z,16.70
2019-03-03T20:46:57.474Z,9.83
2019-03-03T20:49:34.204Z,4.77
2019-03-03T20:52:06.713Z,8.10
2019-03-03T20:54:38.499Z,9.10
2019-03-03T20:57:11.688Z,6.40
2019-03-03T20:59:43.298Z,6.47
2019-03-03T21:02:17.548Z,8.67
2019-03-03T21:04:50.519Z,5.50
2019-03-03T21:07:23.506Z,4.33
2019-03-03T21:09:57.530Z,8.90
2019-03-03T21:12:31.159Z,3.90
2019-03-03T21:15:05.701Z,3.40
2019-03-03T21:17:44.850Z,5.47
2019-03-03T21:20:18.581Z,6.53
2019-03-03T21:22:52.315Z,4.10
2019-03-03T21:25:25.562Z,3.10
2019-03-03T21:27:58.712Z,3.17
2019-03-03T21:30:31.562Z,2.13
2019-03-03T21:33:02.766Z,4.30
2019-03-03T21:35:36.814Z,2.53
2019-03-03T21:38:09.744Z,5.13
2019-03-03T21:40:40.998Z,8.20
2019-03-03T21:43:14.898Z,3.50
2019-03-03T21:45:49.758Z,3.13
2019-03-03T21:48:21.921Z,7.20
2019-03-03T21:50:55.593Z,3.83
2019-03-03T21:53:28.820Z,3.20
2019-03-03T21:56:04.249Z,2.47
2019-03-03T21:58:36.860Z,3.63
2019-03-03T22:01:09.761Z,3.53
2019-03-03T22:03:41.078Z,5.57
2019-03-03T22:06:13.022Z,6.53
2019-03-03T22:08:44.427Z,4.83
2019-03-03T22:11:18.001Z,3.10
2019-03-03T22:13:51.001Z,1.60
2019-03-03T22:16:24.794Z,2.40
2019-03-03T22:18:55.959Z,2.90
2019-03-03T22:21:29.643Z,4.07
2019-03-03T22:24:02.991Z,2.93
2019-03-03T22:26:36.923Z,2.23
2019-03-03T22:29:09.928Z,1.83
2019-03-03T22:31:41.153Z,3.43
2019-03-03T22:34:15.155Z,1.70
2019-03-03T22:36:47.710Z,3.23
2019-03-03T22:39:21.664Z,1.50
2019-03-03T22:41:55.611Z,2.33
2019-03-03T22:44:30.693Z,6.50
2019-03-03T22:47:02.331Z,2.00
2019-03-03T22:49:36.995Z,3.00
2019-03-03T22:52:10.741Z,2.30
2019-03-03T22:54:41.946Z,2.30
2019-03-03T22:57:15.199Z,2.70
2019-03-03T22:59:49.163Z,3.30
2019-03-03T23:02:23.324Z,5.03
2019-03-03T23:05:21.655Z,2.63
2019-03-03T23:08:10.851Z,2.40
2019-03-03T23:11:13.303Z,9.20
2019-03-03T23:14:06.539Z,4.90
2019-03-03T23:17:19.123Z,2.80
2019-03-03T23:20:21.086Z,11.10
2019-03-03T23:23:35.373Z,3.30
2019-03-03T23:26:16.392Z,2.57
2019-03-03T23:28:41.222Z,1.83
2019-03-03T23:31:15.405Z,2.20
2019-03-03T23:33:48.340Z,3.10
2019-03-03T23:36:21.251Z,1.40
2019-03-03T23:38:54.281Z,2.73
2019-03-03T23:41:26.575Z,3.23
2019-03-03T23:43:59.210Z,4.47
2019-03-03T23:46:31.447Z,4.30
2019-03-03T23:49:03.365Z,1.60
2019-03-03T23:51:35.481Z,4.63
2019-03-03T23:54:08.533Z,7.20
2019-03-03T23:56:41.357Z,1.70
2019-03-03T23:59:14.267Z,5.73
